Time;durP1;ratioP1;P1;durP2;ratioP2;P2;SDS_P1;SDS_P2;PMS_P1;PMS_P2;Temp;Humidity;BMP_temperature;BMP_pressure;BME280_temperature;BME280_humidity;BME280_pressure;Samples;Min_cycle;Max_cycle;Signal;HPM_P1;HPM_P2
2021/05/07 00:00:41;;;;;;;1.37;0.83;;;;;;;7.84;93.39;95632.53;4933299;28;20218;-71
2021/05/07 00:03:08;;;;;;;0.80;0.70;;;;;;;7.82;93.27;95631.81;4936304;28;20831;-72
2021/05/07 00:05:36;;;;;;;0.97;0.90;;;;;;;7.72;92.76;95630.78;4935361;28;20227;-72
2021/05/07 00:08:03;;;;;;;1.20;0.90;;;;;;;7.70;93.74;95643.81;4937177;28;20540;-72
2021/05/07 00:10:30;;;;;;;0.73;0.67;;;;;;;7.67;93.62;95638.00;4938168;28;20497;-73
2021/05/07 00:12:57;;;;;;;1.03;0.93;;;;;;;7.62;94.15;95648.66;4943377;28;20442;-72
2021/05/07 00:15:24;;;;;;;0.80;0.60;;;;;;;7.69;94.21;95651.66;4941110;28;20850;-72
2021/05/07 00:17:51;;;;;;;1.13;0.80;;;;;;;7.74;94.05;95647.03;4937466;28;20821;-72
2021/05/07 00:20:18;;;;;;;1.10;0.83;;;;;;;7.76;94.58;95647.75;4941593;28;20974;-73
2021/05/07 00:22:46;;;;;;;0.90;0.70;;;;;;;7.84;94.57;95659.28;4936220;28;20837;-72
2021/05/07 00:25:23;;;;;;;0.80;0.57;;;;;;;7.80;93.70;95650.03;4938519;28;20478;-73
2021/05/07 00:27:58;;;;;;;1.97;0.70;;;;;;;7.74;93.61;95657.38;4940320;28;20203;-72
2021/05/07 00:30:25;;;;;;;1.50;0.70;;;;;;;7.70;92.76;95658.50;4913415;28;20847;-72
2021/05/07 00:32:52;;;;;;;1.15;0.70;;;;;;;7.67;92.84;95664.75;4940814;28;20775;-72
2021/05/07 00:35:18;;;;;;;0.90;0.67;;;;;;;7.61;92.72;95670.31;4933635;28;20950;-72
2021/05/07 00:37:46;;;;;;;1.75;0.70;;;;;;;7.61;93.25;95675.50;4937480;28;20485;-72
2021/05/07 00:40:14;;;;;;;0.90;0.70;;;;;;;7.55;92.64;95665.53;4946543;28;20225;-72
2021/05/07 00:42:41;;;;;;;0.80;0.53;;;;;;;7.49;92.75;95671.09;4941768;28;20958;-72
2021/05/07 00:45:09;;;;;;;0.80;0.50;;;;;;;7.36;92.95;95664.22;4945829;28;20470;-73
2021/05/07 00:47:38;;;;;;;1.02;0.80;;;;;;;7.35;93.47;95665.97;4944063;28;20203;-71
2021/05/07 00:50:07;;;;;;;1.48;0.63;;;;;;;7.47;93.19;95674.72;4948801;28;20402;-72
2021/05/07 00:52:37;;;;;;;1.00;0.73;;;;;;;7.43;93.10;95671.50;4945099;28;20499;-71
2021/05/07 00:55:07;;;;;;;0.80;0.60;;;;;;;7.40;93.82;95676.88;4945406;28;20225;-73
2021/05/07 00:57:35;;;;;;;1.20;0.70;;;;;;;7.45;93.93;95669.63;4943853;28;20630;-71
2021/05/07 01:00:05;;;;;;;1.05;0.63;;;;;;;7.41;94.23;95672.50;4943252;28;20913;-71
2021/05/07 01:02:32;;;;;;;0.80;0.60;;;;;;;7.38;94.21;95677.91;4932691;28;20195;-72
2021/05/07 01:04:59;;;;;;;3.25;1.00;;;;;;;7.38;94.04;95677.91;4945189;28;20525;-72
2021/05/07 01:07:27;;;;;;;2.22;0.80;;;;;;;7.33;94.20;95679.94;4940705;28;20203;-71
2021/05/07 01:09:54;;;;;;;0.93;0.70;;;;;;;7.20;94.86;95673.91;4945177;28;20231;-72
2021/05/07 01:12:22;;;;;;;0.90;0.70;;;;;;;7.08;93.99;95674.69;4945017;28;20690;-72
2021/05/07 01:15:08;;;;;;;1.25;0.82;;;;;;;7.01;95.12;95679.38;4942241;28;20231;-72
2021/05/07 01:17:38;;;;;;;1.00;0.70;;;;;;;6.98;95.93;95676.16;4916961;28;20195;-72
2021/05/07 01:20:12;;;;;;;0.90;0.80;;;;;;;6.95;96.59;95681.53;4949574;28;20238;-71
2021/05/07 01:22:39;;;;;;;1.33;0.70;;;;;;;6.84;96.98;95665.88;4949157;28;20234;-72
2021/05/07 01:25:08;;;;;;;1.20;0.75;;;;;;;6.84;97.42;95676.22;4938746;28;20671;-71
2021/05/07 01:27:38;;;;;;;0.90;0.80;;;;;;;6.76;98.45;95684.44;4945994;28;20561;-73
2021/05/07 01:30:12;;;;;;;0.98;0.70;;;;;;;6.76;99.63;95670.66;4944818;28;20219;-72
2021/05/07 01:32:39;;;;;;;1.45;0.85;;;;;;;6.77;100.00;95667.19;4943539;28;20194;-72
2021/05/07 01:35:13;;;;;;;3.65;0.95;;;;;;;6.85;100.00;95680.47;4946074;28;20327;-72
2021/05/07 01:37:40;;;;;;;1.95;1.02;;;;;;;6.82;100.00;95688.41;4924027;28;20187;-72
2021/05/07 01:40:12;;;;;;;2.47;1.40;;;;;;;6.86;100.00;95682.94;4942870;28;20652;-72
2021/05/07 01:42:39;;;;;;;1.10;0.90;;;;;;;6.67;100.00;95673.81;4944978;28;20187;-74
2021/05/07 01:45:08;;;;;;;1.23;0.85;;;;;;;6.72;100.00;95687.31;4941801;28;20582;-72
2021/05/07 01:47:35;;;;;;;1.00;0.80;;;;;;;6.68;100.00;95678.91;4943995;28;20207;-72
2021/05/07 01:50:05;;;;;;;0.93;0.82;;;;;;;6.68;100.00;95680.66;4947141;28;20548;-72
2021/05/07 01:52:33;;;;;;;1.10;0.80;;;;;;;6.57;100.00;95657.22;4942303;28;20249;-72
2021/05/07 01:55:02;;;;;;;1.48;0.80;;;;;;;6.62;100.00;95673.31;4945923;28;20234;-72
2021/05/07 01:57:30;;;;;;;1.00;0.90;;;;;;;6.63;100.00;95677.53;4947017;28;20634;-71
2021/05/07 01:59:57;;;;;;;1.90;1.08;;;;;;;6.63;100.00;95688.69;4939591;28;20223;-72
2021/05/07 02:02:24;;;;;;;1.23;1.00;;;;;;;6.64;100.00;95685.19;4942873;28;20510;-72
2021/05/07 02:04:51;;;;;;;1.45;0.90;;;;;;;6.52;100.00;95674.78;4918540;29;20664;-72
2021/05/07 02:07:19;;;;;;;1.20;1.00;;;;;;;6.56;100.00;95681.44;4922990;29;20230;-71
2021/05/07 02:09:46;;;;;;;1.20;0.98;;;;;;;6.49;100.00;95690.47;4914153;29;20664;-73
2021/05/07 02:12:13;;;;;;;1.77;1.10;;;;;;;6.43;100.00;95688.25;4916666;29;20648;-72
2021/05/07 02:14:41;;;;;;;1.73;1.20;;;;;;;6.42;100.00;95678.84;4917530;29;20892;-71
2021/05/07 02:17:08;;;;;;;3.58;1.58;;;;;;;6.49;100.00;95680.94;4917882;29;20581;-73
2021/05/07 02:19:35;;;;;;;1.20;1.05;;;;;;;6.51;100.00;95688.63;4914040;29;20313;-72
2021/05/07 02:22:02;;;;;;;7.80;1.40;;;;;;;6.51;100.00;95686.03;4917057;29;20778;-72
2021/05/07 02:24:29;;;;;;;1.60;1.10;;;;;;;6.53;100.00;95682.44;4913879;28;20698;-72
2021/05/07 02:26:56;;;;;;;1.60;1.10;;;;;;;6.57;100.00;95685.66;4908612;29;20199;-72
2021/05/07 02:29:23;;;;;;;1.15;1.02;;;;;;;6.49;100.00;95670.59;4916258;29;20265;-72
2021/05/07 02:31:50;;;;;;;3.00;1.40;;;;;;;6.59;100.00;95676.06;4913112;29;20781;-73
2021/05/07 02:34:17;;;;;;;2.28;1.20;;;;;;;6.58;100.00;95683.00;4908695;29;20877;-71
2021/05/07 02:36:45;;;;;;;1.35;0.93;;;;;;;6.50;100.00;95686.97;4914382;29;20575;-72
2021/05/07 02:39:15;;;;;;;1.30;0.90;;;;;;;6.43;100.00;95696.84;4912401;29;20224;-72
2021/05/07 02:41:43;;;;;;;1.30;0.88;;;;;;;6.43;100.00;95703.75;4912464;29;20211;-71
2021/05/07 02:44:11;;;;;;;1.00;0.80;;;;;;;6.43;100.00;95703.75;4911682;28;20715;-72
2021/05/07 02:46:38;;;;;;;2.10;1.00;;;;;;;6.48;100.00;95699.16;4904039;29;20578;-72
2021/05/07 02:49:07;;;;;;;1.33;1.08;;;;;;;6.51;100.00;95704.13;4918287;29;20249;-72
2021/05/07 02:51:35;;;;;;;1.90;1.00;;;;;;;6.51;100.00;95704.13;4922364;29;20192;-72
2021/05/07 02:54:03;;;;;;;1.20;0.80;;;;;;;6.46;100.00;95716.50;4912334;29;20240;-72
2021/05/07 02:56:30;;;;;;;1.10;1.00;;;;;;;6.49;100.00;95719.72;4921309;29;20256;-70
2021/05/07 02:58:56;;;;;;;2.10;0.90;;;;;;;6.53;100.00;95721.22;4909628;29;20220;-71
2021/05/07 03:01:24;;;;;;;1.17;1.00;;;;;;;6.57;100.00;95719.28;4913144;29;20493;-72
2021/05/07 03:03:51;;;;;;;3.40;1.20;;;;;;;6.50;100.00;95717.97;4913067;28;20228;-74
2021/05/07 03:06:18;;;;;;;1.80;1.30;;;;;;;6.44;100.00;95713.16;4917583;29;20923;-72
2021/05/07 03:08:45;;;;;;;3.63;1.30;;;;;;;6.49;100.00;95714.56;4907607;29;20661;-73
2021/05/07 03:11:12;;;;;;;2.75;1.20;;;;;;;6.46;100.00;95719.91;4907091;29;20570;-72
2021/05/07 03:13:39;;;;;;;1.70;1.50;;;;;;;6.35;100.00;95722.28;4916522;29;20728;-71
2021/05/07 03:16:06;;;;;;;4.60;1.55;;;;;;;6.38;100.00;95723.88;4911759;29;20298;-71
2021/05/07 03:18:34;;;;;;;4.05;1.70;;;;;;;6.34;100.00;95722.41;4914063;29;20188;-71
2021/05/07 03:21:01;;;;;;;1.48;1.38;;;;;;;6.36;100.00;95730.88;4915170;29;20236;-70
2021/05/07 03:23:28;;;;;;;2.22;1.60;;;;;;;6.26;100.00;95735.75;4895892;29;20215;-71
2021/05/07 03:25:55;;;;;;;2.25;1.63;;;;;;;6.24;100.00;95731.59;4915222;29;20195;-71
2021/05/07 03:28:22;;;;;;;4.00;1.80;;;;;;;6.17;100.00;95745.81;4915475;28;20215;-72
2021/05/07 03:30:49;;;;;;;3.28;1.40;;;;;;;6.03;100.00;95738.06;4918251;29;20517;-71
2021/05/07 03:33:16;;;;;;;2.53;1.65;;;;;;;6.06;100.00;95743.03;4908461;29;20201;-71
2021/05/07 03:35:44;;;;;;;2.03;1.33;;;;;;;6.06;100.00;95740.44;4912210;29;20313;-71
2021/05/07 03:38:11;;;;;;;1.90;1.33;;;;;;;6.00;100.00;95720.13;4910785;29;20552;-70
2021/05/07 03:40:38;;;;;;;1.52;1.10;;;;;;;6.06;100.00;95751.59;4914408;29;20579;-71
2021/05/07 03:43:05;;;;;;;2.38;1.48;;;;;;;6.00;100.00;95753.72;4909709;29;20631;-71
2021/05/07 03:45:32;;;;;;;1.50;1.13;;;;;;;5.95;100.00;95758.28;4912552;29;20224;-71
2021/05/07 03:47:58;;;;;;;2.08;1.38;;;;;;;5.93;100.00;95767.88;4916247;29;20690;-70
2021/05/07 03:50:25;;;;;;;1.83;1.60;;;;;;;5.93;100.00;95767.88;4906327;29;20208;-71
2021/05/07 03:52:53;;;;;;;2.13;1.23;;;;;;;5.98;100.00;95773.63;4912941;29;20740;-71
2021/05/07 03:55:20;;;;;;;2.40;1.83;;;;;;;6.04;100.00;95776.69;4905052;29;20612;-70
2021/05/07 03:57:47;;;;;;;1.30;1.20;;;;;;;6.00;100.00;95779.53;4909035;29;20210;-72
2021/05/07 04:00:15;;;;;;;1.77;1.38;;;;;;;5.90;100.00;95778.41;4913095;29;20227;-73
2021/05/07 04:02:44;;;;;;;1.92;1.17;;;;;;;5.89;100.00;95781.91;4910664;28;20863;-72
2021/05/07 04:05:12;;;;;;;1.73;1.00;;;;;;;5.85;100.00;95780.41;4932779;28;20230;-73
2021/05/07 04:07:39;;;;;;;1.90;0.90;;;;;;;5.86;100.00;95782.91;4942570;28;20564;-73
2021/05/07 04:10:12;;;;;;;2.45;1.15;;;;;;;5.86;100.00;95787.22;4940341;28;20215;-72
2021/05/07 04:15:24;;;;;;;1.25;0.90;;;;;;;5.67;100.00;95779.66;4939157;28;20678;-74
2021/05/07 04:17:51;;;;;;;1.20;0.90;;;;;;;5.78;100.00;95792.81;4942649;28;20270;-73
2021/05/07 04:20:18;;;;;;;1.15;0.75;;;;;;;5.75;100.00;95805.88;4942855;28;20218;-71
2021/05/07 04:22:45;;;;;;;2.80;0.90;;;;;;;5.71;100.00;95806.13;4950089;28;20307;-71
2021/05/07 04:25:13;;;;;;;1.00;0.70;;;;;;;5.65;100.00;95809.06;4946248;28;20654;-71
2021/05/07 04:27:40;;;;;;;1.88;0.80;;;;;;;5.62;100.00;95819.56;4945681;28;20218;-72
2021/05/07 04:30:08;;;;;;;1.58;0.90;;;;;;;5.57;100.00;95824.13;4947964;28;20234;-72
2021/05/07 04:32:35;;;;;;;0.93;0.60;;;;;;;5.52;100.00;95824.38;4948681;28;20262;-71
2021/05/07 04:35:09;;;;;;;0.80;0.60;;;;;;;5.61;100.00;95829.03;4958450;28;20657;-72
2021/05/07 04:37:37;;;;;;;3.80;2.85;;;;;;;5.64;100.00;95834.03;4954008;28;20528;-72
2021/05/07 04:40:05;;;;;;;1.55;0.60;;;;;;;5.63;100.00;95834.97;4942979;28;20529;-73
2021/05/07 04:42:33;;;;;;;1.88;0.68;;;;;;;5.64;100.00;95838.38;4952147;28;20207;-72
2021/05/07 04:45:25;;;;;;;0.90;0.70;;;;;;;5.70;100.00;95846.63;4944821;28;20227;-74
2021/05/07 04:47:52;;;;;;;8.55;4.90;;;;;;;5.72;100.00;95842.19;4951183;28;20643;-71
2021/05/07 04:50:20;;;;;;;5.32;2.33;;;;;;;5.73;100.00;95837.84;4939637;28;20243;-71
2021/05/07 04:52:47;;;;;;;1.85;1.10;;;;;;;5.79;100.00;95853.00;4945240;28;20595;-72
2021/05/07 04:55:14;;;;;;;1.95;0.77;;;;;;;5.78;100.00;95859.94;4944796;28;20606;-71
2021/05/07 04:57:42;;;;;;;2.03;0.90;;;;;;;5.75;100.00;95849.75;4946643;28;20187;-71
2021/05/07 05:00:10;;;;;;;1.00;0.75;;;;;;;5.93;100.00;95864.28;4950020;28;20338;-71
2021/05/07 05:02:37;;;;;;;0.70;0.60;;;;;;;6.04;100.00;95858.53;4948132;28;20203;-71
2021/05/07 05:05:05;;;;;;;1.13;0.75;;;;;;;6.05;100.00;95850.66;4946067;28;20697;-72
2021/05/07 05:07:34;;;;;;;1.42;0.77;;;;;;;6.01;100.00;95869.00;4923108;28;20249;-70
2021/05/07 05:10:02;;;;;;;1.33;0.90;;;;;;;6.00;100.00;95878.53;4948817;28;20270;-72
2021/05/07 05:12:28;;;;;;;2.10;1.00;;;;;;;5.93;100.00;95861.69;4951971;28;20487;-71
2021/05/07 05:14:56;;;;;;;1.27;1.08;;;;;;;6.00;100.00;95869.94;4950849;28;20235;-72
2021/05/07 05:17:23;;;;;;;1.67;1.30;;;;;;;5.99;100.00;95873.44;4954643;28;20586;-73
2021/05/07 05:19:50;;;;;;;1.70;1.45;;;;;;;5.97;100.00;95880.44;4953581;28;20219;-72
2021/05/07 05:22:18;;;;;;;2.63;1.95;;;;;;;6.03;100.00;95872.34;4951072;28;20191;-71
2021/05/07 05:24:45;;;;;;;2.53;1.80;;;;;;;5.98;100.00;95874.34;4955671;28;20312;-72
2021/05/07 05:27:12;;;;;;;3.55;2.20;;;;;;;5.91;100.00;95880.78;4944865;28;20880;-73
2021/05/07 05:29:40;;;;;;;3.58;2.30;;;;;;;5.92;100.00;95880.69;4943888;28;20513;-71
2021/05/07 05:32:08;;;;;;;4.40;2.72;;;;;;;5.92;100.00;95887.59;4943425;28;20206;-71
2021/05/07 05:34:36;;;;;;;8.23;3.75;;;;;;;5.97;100.00;95895.94;4941648;28;20694;-71
2021/05/07 05:37:03;;;;;;;4.10;2.95;;;;;;;5.96;100.00;95907.19;4943183;28;20305;-71
2021/05/07 05:39:30;;;;;;;5.53;3.20;;;;;;;5.98;100.00;95905.34;4942964;28;20229;-71
2021/05/07 05:41:58;;;;;;;10.90;3.80;;;;;;;5.98;100.00;95911.31;4944098;28;20194;-71
2021/05/07 05:44:25;;;;;;;6.88;4.22;;;;;;;6.03;100.00;95916.25;4947215;28;20230;-72
2021/05/07 05:46:52;;;;;;;6.70;4.07;;;;;;;6.17;100.00;95913.72;4940418;28;20702;-72
2021/05/07 05:49:20;;;;;;;5.60;4.05;;;;;;;6.23;100.00;95923.72;4946726;28;20763;-72
2021/05/07 05:51:47;;;;;;;7.40;4.47;;;;;;;6.26;100.00;95920.97;4949249;28;20635;-72
2021/05/07 05:54:14;;;;;;;11.48;6.25;;;;;;;6.24;100.00;95917.63;4948757;28;20328;-72
2021/05/07 05:56:42;;;;;;;18.33;8.75;;;;;;;6.26;100.00;95926.97;4938670;28;20734;-72
2021/05/07 05:59:09;;;;;;;9.00;5.07;;;;;;;6.30;100.00;95917.28;4929498;28;20215;-71
2021/05/07 06:01:36;;;;;;;11.70;5.47;;;;;;;6.36;100.00;95927.28;4938360;28;20192;-71
2021/05/07 06:04:03;;;;;;;7.45;4.70;;;;;;;6.34;100.00;95935.13;4943776;28;20235;-71
2021/05/07 06:06:31;;;;;;;10.57;5.30;;;;;;;6.36;100.00;95922.13;4945470;28;20183;-72
2021/05/07 06:08:58;;;;;;;8.82;5.90;;;;;;;6.41;100.00;95930.47;4940956;28;20223;-72
2021/05/07 06:11:27;;;;;;;10.85;5.82;;;;;;;6.40;100.00;95936.53;4927058;28;20812;-71
2021/05/07 06:13:54;;;;;;;10.68;5.70;;;;;;;6.31;100.00;95934.44;4937574;28;20551;-72
2021/05/07 06:16:21;;;;;;;8.63;5.40;;;;;;;6.51;100.00;95934.16;4941195;28;20199;-72
2021/05/07 06:18:47;;;;;;;8.48;5.38;;;;;;;6.65;100.00;95937.66;4944304;28;20219;-71
2021/05/07 06:21:14;;;;;;;18.30;5.93;;;;;;;6.85;100.00;95932.13;4949411;28;20483;-72
2021/05/07 06:23:42;;;;;;;8.63;5.45;;;;;;;6.95;100.00;95941.06;4924076;28;20341;-72
2021/05/07 06:26:09;;;;;;;7.88;4.97;;;;;;;6.99;100.00;95939.94;4943453;28;20191;-72
2021/05/07 06:28:36;;;;;;;9.27;5.07;;;;;;;7.11;100.00;95933.19;4947489;28;20199;-71
2021/05/07 06:31:03;;;;;;;19.30;5.10;;;;;;;7.09;99.33;95948.00;4939929;28;20653;-72
2021/05/07 06:33:30;;;;;;;5.93;4.80;;;;;;;7.00;98.67;95948.53;4944016;28;20199;-71
2021/05/07 06:35:57;;;;;;;9.75;5.72;;;;;;;6.97;97.83;95954.72;4939972;28;20219;-71
2021/05/07 06:38:23;;;;;;;11.30;6.50;;;;;;;6.83;98.42;95964.19;4947805;28;20229;-71
2021/05/07 06:40:51;;;;;;;9.13;5.35;;;;;;;6.83;98.34;95961.59;4943003;28;21054;-71
2021/05/07 06:43:18;;;;;;;8.95;5.00;;;;;;;6.65;98.56;95970.41;4942489;28;20643;-73
2021/05/07 06:45:45;;;;;;;18.40;10.60;;;;;;;6.54;98.51;95967.59;4941680;28;20643;-71
2021/05/07 06:48:12;;;;;;;26.63;13.02;;;;;;;6.56;99.34;95976.13;4943034;28;20228;-71
2021/05/07 06:50:39;;;;;;;12.18;7.13;;;;;;;6.34;98.63;95966.13;4937692;28;20855;-72
2021/05/07 06:53:06;;;;;;;13.10;5.90;;;;;;;6.44;99.33;95992.28;4947260;28;20620;-71
2021/05/07 06:55:33;;;;;;;13.13;5.70;;;;;;;6.48;99.90;95993.81;4947769;28;20658;-71
2021/05/07 06:58:01;;;;;;;17.98;5.93;;;;;;;6.52;99.73;95997.88;4927756;28;20214;-70
2021/05/07 07:00:28;;;;;;;14.02;8.25;;;;;;;6.44;99.07;96002.63;4947187;28;20242;-71
2021/05/07 07:02:55;;;;;;;23.83;11.98;;;;;;;6.41;99.82;95997.66;4949804;28;20194;-70
2021/05/07 07:05:22;;;;;;;17.83;10.52;;;;;;;6.40;99.95;96008.91;4937774;28;20341;-71
2021/05/07 07:07:49;;;;;;;12.00;7.07;;;;;;;6.33;99.35;96010.97;4942834;28;20825;-71
2021/05/07 07:10:20;;;;;;;9.18;6.38;;;;;;;6.46;99.92;96019.72;4942188;28;20227;-73
2021/05/07 07:12:47;;;;;;;6.88;5.00;;;;;;;6.57;99.75;96013.97;4947240;28;20202;-71
2021/05/07 07:15:16;;;;;;;9.02;5.88;;;;;;;6.83;100.00;96005.56;4916285;28;20231;-70
2021/05/07 07:17:43;;;;;;;10.73;6.75;;;;;;;6.92;100.00;95995.53;4947093;28;20195;-71
2021/05/07 07:20:11;;;;;;;9.98;5.90;;;;;;;7.25;99.48;96027.25;4946567;28;20756;-70
2021/05/07 07:22:38;;;;;;;11.25;6.32;;;;;;;7.44;99.50;96022.63;4937443;28;20195;-71
2021/05/07 07:25:06;;;;;;;11.93;5.55;;;;;;;7.71;99.73;96028.78;4937486;28;20227;-71
2021/05/07 07:27:34;;;;;;;7.63;4.95;;;;;;;7.89;97.13;96026.84;4942978;28;20631;-71
2021/05/07 07:30:01;;;;;;;7.13;5.20;;;;;;;7.98;95.44;96031.44;4940587;28;20250;-71
2021/05/07 07:32:29;;;;;;;9.85;4.63;;;;;;;8.09;95.94;96032.47;4941841;28;20195;-72
2021/05/07 07:35:01;;;;;;;9.17;5.70;;;;;;;8.08;94.66;96040.34;4943686;28;20554;-71
2021/05/07 07:37:29;;;;;;;8.30;5.15;;;;;;;7.93;94.35;96046.44;4942617;28;20898;-72
2021/05/07 07:39:55;;;;;;;14.13;8.63;;;;;;;7.94;94.34;96054.13;4943257;28;20237;-71
2021/05/07 07:42:23;;;;;;;22.33;12.47;;;;;;;7.96;94.32;96054.03;4945301;28;20451;-71
2021/05/07 07:44:51;;;;;;;20.03;11.30;;;;;;;7.88;93.33;96066.63;4941756;28;20769;-71
2021/05/07 07:47:18;;;;;;;9.98;6.47;;;;;;;7.62;92.43;96069.91;4941737;28;20469;-74
2021/05/07 07:49:47;;;;;;;5.20;4.00;;;;;;;7.59;92.20;96072.69;4934986;28;20253;-72
2021/05/07 07:52:15;;;;;;;5.50;3.80;;;;;;;7.61;91.58;96073.44;4937171;28;20567;-72
2021/05/07 07:54:41;;;;;;;12.38;5.25;;;;;;;7.68;92.35;96074.75;4939595;28;20494;-69
2021/05/07 07:57:08;;;;;;;9.27;4.38;;;;;;;7.86;92.78;96078.84;4936264;28;20194;-70
2021/05/07 07:59:35;;;;;;;6.60;4.47;;;;;;;8.04;92.04;96083.75;4942352;28;20226;-71
2021/05/07 08:02:03;;;;;;;9.97;4.80;;;;;;;8.43;91.59;96086.53;4936863;28;20681;-72
2021/05/07 08:04:30;;;;;;;12.93;4.77;;;;;;;8.86;90.10;96077.72;4939231;28;21230;-72
2021/05/07 08:06:57;;;;;;;6.70;4.03;;;;;;;9.10;86.25;96089.97;4934197;28;20501;-72
2021/05/07 08:09:24;;;;;;;7.27;4.80;;;;;;;9.28;86.67;96095.75;4945671;28;20474;-72
2021/05/07 08:11:53;;;;;;;4.30;3.43;;;;;;;9.03;84.32;96093.06;4941529;28;20450;-71
2021/05/07 08:14:20;;;;;;;5.80;3.63;;;;;;;8.90;84.92;96103.38;4941436;28;20851;-72
2021/05/07 08:16:47;;;;;;;7.83;4.00;;;;;;;9.02;86.24;96107.81;4936429;28;20458;-70
2021/05/07 08:19:14;;;;;;;9.27;5.03;;;;;;;9.37;84.86;96111.53;4937947;28;20790;-71
2021/05/07 08:21:42;;;;;;;25.47;14.60;;;;;;;9.78;85.54;96109.66;4939242;28;20446;-71
2021/05/07 08:24:11;;;;;;;6.27;3.40;;;;;;;10.13;83.89;96115.13;4936250;28;20463;-71
2021/05/07 08:26:37;;;;;;;7.80;4.10;;;;;;;10.20;83.58;96113.78;4944153;28;20465;-71
2021/05/07 08:29:05;;;;;;;5.40;3.40;;;;;;;10.52;80.41;96109.78;4944777;28;20470;-72
2021/05/07 08:31:32;;;;;;;10.90;4.30;;;;;;;10.38;76.91;96121.16;4942808;28;20434;-71
2021/05/07 08:33:59;;;;;;;22.80;10.77;;;;;;;10.32;78.87;96124.16;4948643;28;20981;-71
2021/05/07 08:36:27;;;;;;;9.93;3.93;;;;;;;10.17;78.57;96127.81;4946188;28;20451;-73
2021/05/07 08:38:55;;;;;;;8.13;3.67;;;;;;;10.07;77.45;96131.97;4942481;28;20466;-72
2021/05/07 08:41:23;;;;;;;5.50;3.53;;;;;;;9.88;75.15;96131.50;4932890;28;20485;-71
2021/05/07 08:43:52;;;;;;;5.73;3.23;;;;;;;10.10;75.18;96133.53;4935609;28;21047;-72
2021/05/07 08:46:19;;;;;;;10.17;3.23;;;;;;;10.18;75.29;96142.47;4923401;28;20785;-71
2021/05/07 08:48:47;;;;;;;7.33;3.70;;;;;;;9.88;73.05;96144.50;4937842;28;20466;-71
2021/05/07 08:51:14;;;;;;;9.80;4.03;;;;;;;10.01;74.55;96157.50;4946001;28;20465;-71
2021/05/07 08:53:42;;;;;;;6.87;3.70;;;;;;;10.03;75.63;96153.09;4935617;28;20965;-72
2021/05/07 08:56:29;;;;;;;6.20;4.60;;;;;;;10.19;75.72;96156.31;4950854;28;20994;-72
2021/05/07 08:58:56;;;;;;;5.53;3.40;;;;;;;10.03;73.75;96161.72;4947207;28;20477;-72
2021/05/07 09:01:23;;;;;;;7.43;3.70;;;;;;;9.83;73.98;96163.94;4938996;28;20991;-73
2021/05/07 09:03:50;;;;;;;7.93;4.17;;;;;;;9.77;73.72;96180.78;4940560;28;20541;-72
2021/05/07 09:06:18;;;;;;;9.40;4.10;;;;;;;9.50;73.09;96187.75;4943898;28;20476;-72
2021/05/07 09:08:45;;;;;;;9.60;4.17;;;;;;;9.07;76.92;96193.19;4944368;28;20556;-71
2021/05/07 09:11:13;;;;;;;8.63;4.43;;;;;;;9.13;77.49;96192.78;4926020;28;20943;-71
2021/05/07 09:13:41;;;;;;;7.83;5.37;;;;;;;9.14;76.20;96187.50;4943214;28;20453;-71
2021/05/07 09:16:10;;;;;;;8.90;3.53;;;;;;;9.85;76.61;96194.09;4941631;28;20910;-72
2021/05/07 09:18:44;;;;;;;8.50;3.67;;;;;;;10.56;75.70;96197.13;4946390;28;20857;-71
2021/05/07 09:21:11;;;;;;;5.43;3.13;;;;;;;10.86;69.88;96190.66;4940072;28;20465;-71
2021/05/07 09:23:39;;;;;;;8.83;3.40;;;;;;;10.59;68.04;96191.69;4939204;28;20453;-72
2021/05/07 09:26:07;;;;;;;5.03;4.03;;;;;;;10.53;69.25;96198.16;4940849;28;20465;-71
2021/05/07 09:28:34;;;;;;;4.83;3.43;;;;;;;10.43;67.44;96197.13;4943671;28;20470;-72
2021/05/07 09:31:14;;;;;;;5.60;3.97;;;;;;;10.47;65.79;96208.16;4949623;28;20506;-71
2021/05/07 09:33:42;;;;;;;3.63;3.03;;;;;;;10.33;64.52;96210.84;4947351;28;20450;-71
2021/05/07 09:36:09;;;;;;;7.97;3.60;;;;;;;10.27;64.60;96206.91;4944138;28;20469;-72
2021/05/07 09:38:36;;;;;;;5.97;3.00;;;;;;;10.55;64.76;96217.09;4945763;28;20786;-71
2021/05/07 09:41:04;;;;;;;5.87;3.17;;;;;;;10.77;64.13;96227.69;4939602;28;20449;-72
2021/05/07 09:43:31;;;;;;;6.40;3.50;;;;;;;10.63;64.56;96224.38;4942689;28;20469;-71
2021/05/07 09:45:58;;;;;;;12.30;3.07;;;;;;;10.72;66.06;96231.56;4945016;28;20470;-72
2021/05/07 09:48:27;;;;;;;6.33;3.07;;;;;;;10.47;63.65;96177.75;4946234;28;20776;-71
2021/05/07 09:50:57;;;;;;;3.70;3.30;;;;;;;11.22;61.56;96221.94;4938782;28;20501;-72
2021/05/07 09:53:26;;;;;;;25.70;11.17;;;;;;;11.54;60.60;96230.88;4948036;28;20442;-73
2021/05/07 09:55:57;;;;;;;8.77;4.97;;;;;;;11.55;61.57;96231.72;4921844;28;20450;-72
2021/05/07 09:58:23;;;;;;;5.20;3.57;;;;;;;10.92;61.79;96237.09;4944238;28;20450;-73
2021/05/07 10:00:50;;;;;;;4.40;2.87;;;;;;;10.92;65.31;96242.31;4939339;28;20841;-72
2021/05/07 10:03:17;;;;;;;3.60;2.60;;;;;;;10.61;63.20;96250.50;4944010;28;20434;-70
2021/05/07 10:05:45;;;;;;;4.83;3.33;;;;;;;10.34;64.01;96249.78;4947429;28;20969;-72
2021/05/07 10:08:12;;;;;;;6.70;2.57;;;;;;;10.19;61.54;96256.00;4943493;28;20445;-74
2021/05/07 10:10:42;;;;;;;7.90;3.23;;;;;;;10.57;61.55;96253.44;4935819;28;20904;-71
2021/05/07 10:13:13;;;;;;;4.77;2.87;;;;;;;11.09;60.34;96238.50;4942164;28;20445;-71
2021/05/07 10:15:42;;;;;;;5.27;3.73;;;;;;;11.93;59.50;96256.72;4945472;28;20498;-71
2021/05/07 10:18:10;;;;;;;6.80;3.17;;;;;;;12.04;57.04;96256.78;4939457;28;20542;-72
2021/05/07 10:20:39;;;;;;;5.30;3.50;;;;;;;11.71;58.49;96264.44;4942340;28;20801;-70
2021/05/07 10:23:16;;;;;;;6.57;3.80;;;;;;;11.52;58.20;96271.03;4941712;28;20438;-72
2021/05/07 10:25:53;;;;;;;6.40;3.03;;;;;;;10.91;57.41;96282.28;4937127;28;20660;-71
2021/05/07 10:28:20;;;;;;;6.67;2.97;;;;;;;10.94;57.17;96276.88;4942073;28;20450;-72
2021/05/07 10:30:47;;;;;;;5.10;3.27;;;;;;;11.25;58.77;96281.63;4941151;28;20490;-72
2021/05/07 10:33:19;;;;;;;3.50;3.00;;;;;;;11.52;57.45;96284.06;4922170;28;21008;-73
2021/05/07 10:35:48;;;;;;;4.70;2.93;;;;;;;11.36;57.74;96289.53;4935912;28;20493;-73
2021/05/07 10:38:18;;;;;;;4.27;3.00;;;;;;;10.97;57.85;96301.88;4937352;28;20952;-71
2021/05/07 10:40:46;;;;;;;4.10;2.30;;;;;;;10.64;58.31;96294.56;4938007;28;20980;-71
2021/05/07 10:43:13;;;;;;;4.50;2.67;;;;;;;10.53;59.74;96302.25;4942388;28;20921;-73
2021/05/07 10:45:48;;;;;;;2.73;2.23;;;;;;;11.12;58.48;96299.03;4947331;28;21206;-71
2021/05/07 10:48:18;;;;;;;5.10;2.70;;;;;;;11.91;57.67;96291.69;4942491;28;20939;-72
2021/05/07 10:50:47;;;;;;;5.90;3.00;;;;;;;12.11;55.88;96289.31;4942399;28;20472;-71
2021/05/07 10:53:35;;;;;;;4.23;2.13;;;;;;;12.08;56.43;96297.34;4942250;28;20441;-72
2021/05/07 10:56:14;;;;;;;5.83;2.27;;;;;;;12.02;55.28;96295.19;4945636;28;20455;-71
2021/05/07 10:58:42;;;;;;;6.50;4.30;;;;;;;11.87;55.86;96306.72;4942518;28;21335;-73
2021/05/07 11:01:17;;;;;;;6.00;4.13;;;;;;;11.69;57.20;96308.03;4942690;28;20519;-73
2021/05/07 11:03:45;;;;;;;6.63;4.00;;;;;;;11.67;56.88;96315.13;4942590;28;20929;-72
2021/05/07 11:06:17;;;;;;;5.50;2.40;;;;;;;11.40;55.68;96309.22;4932182;28;20517;-71
2021/05/07 11:08:45;;;;;;;198.17;15.40;;;;;;;11.32;57.16;96316.72;4945939;28;20482;-71
2021/05/07 11:11:12;;;;;;;3.47;2.57;;;;;;;11.05;55.99;96321.22;4942855;28;20810;-72
2021/05/07 11:13:39;;;;;;;5.37;3.23;;;;;;;10.77;56.68;96305.78;4943920;28;20838;-73
2021/05/07 11:16:06;;;;;;;4.67;2.77;;;;;;;10.73;56.86;96324.34;4944508;28;20557;-74
2021/05/07 11:18:34;;;;;;;4.33;2.53;;;;;;;10.61;60.19;96328.59;4937596;28;20447;-73
2021/05/07 11:21:11;;;;;;;6.13;2.60;;;;;;;10.51;59.77;96332.75;4941963;28;20510;-72
2021/05/07 11:23:57;;;;;;;4.30;2.40;;;;;;;10.64;60.93;96331.00;4934046;28;20576;-70
2021/05/07 11:26:37;;;;;;;6.30;2.70;;;;;;;10.47;58.26;96328.66;4946371;28;20769;-72
2021/05/07 11:29:05;;;;;;;7.07;2.63;;;;;;;10.37;57.85;96330.22;4942260;28;20580;-72
2021/05/07 11:31:32;;;;;;;5.60;2.80;;;;;;;10.32;58.85;96329.66;4947747;28;20832;-72
2021/05/07 11:33:59;;;;;;;5.43;2.77;;;;;;;10.40;59.41;96335.19;4942779;28;20545;-72
2021/05/07 11:36:26;;;;;;;6.40;2.60;;;;;;;10.56;56.81;96330.69;4944055;28;20439;-72
2021/05/07 11:38:53;;;;;;;6.77;2.93;;;;;;;11.07;57.63;96344.56;4941045;28;20541;-71
2021/05/07 11:41:28;;;;;;;4.13;2.43;;;;;;;11.44;54.56;96339.34;4944365;28;20452;-72